31.1°F
Current conditions from King Hill
Updated every 5 minutes
 
  Wednesday April 16, 2014

Station Historical Data
Daily Summary for May 1, 2012 Units:  Metric    English   Both
« Previous Day
Next Day »
Daily Weekly Monthly Yearly Custom
  High: Low: Average:
Temperature: 11.2 °C 6 °C 8.3 °C
Dew Point: 6.7 °C -0.7 °C 4.7 °C
Humidity: 92% 45% 79%
Wind Speed: 11.3km/h 0km/h 4.7km/h
Wind Gust: 24.1km/h - -
Wind- - South
Pressure: 1018.5 hPa 1013.8 hPa -
Precipitation: 9.9 mm    
Historical Graphs
 
 
Tabular Data for May 1, 2012
Time Temperature Dew Point Pressure Wind Wind Speed Wind Gust Humidity Daily Rainfall
00:04 9.3 °C 0.9 °C 1018.5 hPa Calm   3.2 km/h 56% 0 mm
00:09 9.2 °C 1.6 °C 1018.5 hPa Calm   3.2 km/h 59% 0 mm
00:14 8.9 °C 1.8 °C 1018.5 hPa Calm   3.2 km/h 61% 0 mm
00:19 8.8 °C 1.3 °C 1018.5 hPa Calm   4.8 km/h 59% 0 mm
00:29 9.3 °C 0.5 °C 1018.2 hPa Calm   8 km/h 54% 0 mm
00:34 9.9 °C 0.3 °C 1018.2 hPa SE 1.6 km/h 8 km/h 51% 0 mm
00:39 10.3 °C -0.3 °C 1018.2 hPa Calm   8 km/h 48% 0 mm
00:44 10.3 °C -0.2 °C 1018.2 hPa Calm   4.8 km/h 48% 0 mm
00:49 10.4 °C -0.7 °C 1018.2 hPa SSE 1.6 km/h 8 km/h 46% 0 mm
00:54 10.4 °C 0.4 °C 1018.2 hPa Calm   8 km/h 50% 0 mm
00:59 10.2 °C 1 °C 1017.8 hPa Calm   1.6 km/h 53% 0 mm
01:04 9.9 °C 0 °C 1017.5 hPa Calm   3.2 km/h 50% 0 mm
01:09 9.9 °C 0.6 °C 1017.5 hPa Calm   3.2 km/h 52% 0 mm
01:14 9.9 °C 0.3 °C 1017.5 hPa SE 1.6 km/h 9.7 km/h 51% 0 mm
01:19 10.2 °C 0.8 °C 1017.2 hPa Calm   9.7 km/h 52% 0 mm
01:24 10.3 °C -0.3 °C 1017.2 hPa SE 1.6 km/h 9.7 km/h 48% 0 mm
01:34 10.6 °C 0 °C 1017.2 hPa SSE 1.6 km/h 12.9 km/h 48% 0 mm
01:39 10.6 °C 0 °C 1017.2 hPa Calm   9.7 km/h 48% 0 mm
01:44 10.6 °C 0.3 °C 1016.8 hPa SE 3.2 km/h 11.3 km/h 49% 0 mm
01:49 10.7 °C -0.2 °C 1016.8 hPa SSE 4.8 km/h 17.7 km/h 47% 0 mm
01:54 10.9 °C -0.2 °C 1016.8 hPa South 4.8 km/h 17.7 km/h 46% 0 mm
01:59 11.1 °C -0.1 °C 1016.5 hPa Calm   16.1 km/h 46% 0 mm
02:04 11.1 °C 0.2 °C 1016.5 hPa South 3.2 km/h 16.1 km/h 47% 0 mm
02:09 11.2 °C -0.3 °C 1016.5 hPa SSE 4.8 km/h 14.5 km/h 45% 0 mm
02:14 11.2 °C -0.3 °C 1016.5 hPa SSW 3.2 km/h 14.5 km/h 45% 0 mm
02:19 11.2 °C -0.3 °C 1016.5 hPa SSE 3.2 km/h 14.5 km/h 45% 0 mm
02:24 11.2 °C 0 °C 1016.1 hPa SSE 1.6 km/h 9.7 km/h 46% 0 mm
02:29 11.2 °C 0 °C 1016.1 hPa Calm   9.7 km/h 46% 0 mm
02:34 11.1 °C -0.1 °C 1016.1 hPa South 1.6 km/h 9.7 km/h 46% 0 mm
02:39 11 °C 0.1 °C 1016.1 hPa SSW 1.6 km/h 8 km/h 47% 0 mm
02:44 10.9 °C -0.3 °C 1016.1 hPa South 3.2 km/h 12.9 km/h 46% 0 mm
02:49 10.9 °C -0.3 °C 1016.1 hPa Calm   12.9 km/h 46% 0 mm
02:54 10.8 °C -0.1 °C 1016.1 hPa Calm   12.9 km/h 47% 0 mm
03:04 10.8 °C 1.1 °C 1016.1 hPa SSW 1.6 km/h 9.7 km/h 51% 0 mm
03:09 10.4 °C 2.6 °C 1016.1 hPa South 1.6 km/h 9.7 km/h 58% 0 mm
03:14 9.8 °C 3.5 °C 1016.1 hPa Calm   8 km/h 65% 0 mm
03:19 9.1 °C 3.7 °C 1016.1 hPa Calm     69% 0 mm
03:24 8.5 °C 3.7 °C 1016.5 hPa Calm     72% 0 mm
03:34 8.6 °C 2.6 °C 1016.1 hPa SSW 9.7 km/h 24.1 km/h 66% 0.3 mm
03:39 8.5 °C 2.7 °C 1016.1 hPa SW 4.8 km/h 24.1 km/h 67% 0.3 mm
03:44 8.3 °C 2.8 °C 1016.1 hPa SSW 6.4 km/h 19.3 km/h 68% 0.3 mm
03:49 8.2 °C 2.9 °C 1016.1 hPa Calm   16.1 km/h 69% 0.3 mm
03:59 7.9 °C 3 °C 1016.1 hPa SSW 3.2 km/h 12.9 km/h 71% 0.3 mm
04:09 7.6 °C 3.2 °C 1015.8 hPa SSW 8 km/h 16.1 km/h 74% 0.5 mm
04:14 7.4 °C 3.4 °C 1015.8 hPa SSW 3.2 km/h 16.1 km/h 76% 0.5 mm
04:19 7.2 °C 3.7 °C 1015.5 hPa Calm   11.3 km/h 78% 0.5 mm
04:24 7.1 °C 3.7 °C 1015.5 hPa Calm   8 km/h 79% 0.8 mm
04:29 6.9 °C 3.7 °C 1015.5 hPa South 1.6 km/h 6.4 km/h 80% 1 mm
04:34 6.8 °C 3.8 °C 1015.5 hPa Calm   8 km/h 81% 1 mm
04:39 6.8 °C 3.9 °C 1015.1 hPa Calm   8 km/h 82% 1 mm
04:44 6.7 °C 3.8 °C 1015.1 hPa Calm     82% 1.3 mm
04:49 6.6 °C 3.9 °C 1015.1 hPa Calm     83% 1.3 mm
04:54 6.6 °C 3.9 °C 1015.1 hPa Calm     83% 1.5 mm
04:59 6.5 °C 4 °C 1014.8 hPa Calm   3.2 km/h 84% 1.5 mm
05:04 6.5 °C 4 °C 1014.8 hPa SSE 1.6 km/h 9.7 km/h 84% 1.8 mm
05:09 6.5 °C 4 °C 1014.8 hPa Calm   9.7 km/h 84% 1.8 mm
05:14 6.4 °C 4.1 °C 1014.4 hPa Calm   8 km/h 85% 2 mm
05:19 6.4 °C 4.1 °C 1014.4 hPa Calm   4.8 km/h 85% 2 mm
05:24 6.4 °C 4.1 °C 1014.4 hPa Calm   4.8 km/h 85% 2.3 mm
05:34 6.4 °C 4.3 °C 1014.1 hPa Calm     86% 2.5 mm
05:39 6.4 °C 4.3 °C 1014.4 hPa Calm   3.2 km/h 86% 2.8 mm
05:44 6.4 °C 4.2 °C 1014.4 hPa Calm   3.2 km/h 86% 3.3 mm
05:49 6.4 °C 4.2 °C 1014.8 hPa Calm     86% 3.6 mm
05:54 6.4 °C 4.4 °C 1014.8 hPa Calm   6.4 km/h 87% 4.1 mm
05:59 6.4 °C 4.4 °C 1015.1 hPa SSW 1.6 km/h 8 km/h 87% 4.3 mm
06:04 6.3 °C 4.3 °C 1015.1 hPa Calm   8 km/h 87% 4.6 mm
06:09 6.3 °C 4.3 °C 1015.1 hPa SSW 3.2 km/h 9.7 km/h 87% 5.1 mm
06:14 6.2 °C 4.2 °C 1015.1 hPa SW 1.6 km/h 9.7 km/h 87% 5.1 mm
06:19 6.2 °C 4.2 °C 1015.1 hPa Calm   8 km/h 87% 5.3 mm
06:24 6.1 °C 4.3 °C 1014.8 hPa South 6.4 km/h 14.5 km/h 88% 5.6 mm
06:29 6.1 °C 4.2 °C 1014.4 hPa South 4.8 km/h 14.5 km/h 88% 5.6 mm
06:34 6.1 °C 4.2 °C 1014.4 hPa South 3.2 km/h 14.5 km/h 88% 5.6 mm
06:44 6 °C 4.2 °C 1014.4 hPa Calm   14.5 km/h 88% 5.8 mm
06:54 6.1 °C 4.2 °C 1014.4 hPa South 3.2 km/h 14.5 km/h 88% 6.1 mm
06:59 6.1 °C 4.2 °C 1014.4 hPa SSE 6.4 km/h 17.7 km/h 88% 6.4 mm
07:04 6.1 °C 4.3 °C 1014.4 hPa South 4.8 km/h 19.3 km/h 88% 6.6 mm
07:09 6.1 °C 4.3 °C 1014.4 hPa South 1.6 km/h 19.3 km/h 88% 6.6 mm
07:14 6.2 °C 4.3 °C 1014.4 hPa South 3.2 km/h 12.9 km/h 88% 6.9 mm
07:19 6.2 °C 4.3 °C 1014.4 hPa South 4.8 km/h 14.5 km/h 88% 7.1 mm
07:24 6.2 °C 4.4 °C 1014.4 hPa South 4.8 km/h 14.5 km/h 88% 7.1 mm
07:29 6.3 °C 4.6 °C 1014.4 hPa South 3.2 km/h 14.5 km/h 89% 7.1 mm
07:34 6.3 °C 4.7 °C 1014.4 hPa South 3.2 km/h 19.3 km/h 89% 7.4 mm
07:39 6.3 °C 4.7 °C 1014.4 hPa SSW 3.2 km/h 19.3 km/h 89% 7.6 mm
07:44 6.3 °C 4.7 °C 1014.8 hPa SSW 8 km/h 17.7 km/h 89% 7.6 mm
07:49 6.4 °C 4.7 °C 1014.8 hPa South 6.4 km/h 17.7 km/h 89% 7.6 mm
07:54 6.4 °C 4.7 °C 1014.4 hPa SSW 4.8 km/h 14.5 km/h 89% 7.9 mm
07:59 6.4 °C 4.7 °C 1014.4 hPa South 4.8 km/h 16.1 km/h 89% 8.1 mm
08:04 6.4 °C 4.7 °C 1014.8 hPa SSW 1.6 km/h 16.1 km/h 89% 8.4 mm
08:09 6.4 °C 4.8 °C 1014.8 hPa SSW 4.8 km/h 19.3 km/h 89% 8.4 mm
08:14 6.4 °C 4.8 °C 1014.8 hPa South 4.8 km/h 19.3 km/h 89% 8.6 mm
08:19 6.4 °C 4.8 °C 1014.8 hPa SSW 8 km/h 22.5 km/h 89% 8.6 mm
08:24 6.5 °C 4.8 °C 1014.8 hPa South 3.2 km/h 22.5 km/h 89% 8.6 mm
08:29 6.5 °C 4.8 °C 1014.8 hPa South 6.4 km/h 20.9 km/h 89% 8.9 mm
08:34 6.4 °C 4.8 °C 1014.8 hPa SSW 4.8 km/h 20.9 km/h 89% 8.9 mm
08:44 6.6 °C 4.9 °C 1014.8 hPa South 8 km/h 11.3 km/h 89% 9.1 mm
08:49 6.6 °C 4.9 °C 1014.8 hPa South 6.4 km/h 17.7 km/h 89% 9.1 mm
08:54 6.6 °C 4.9 °C 1014.8 hPa SSW 6.4 km/h 17.7 km/h 89% 9.1 mm
08:59 6.6 °C 4.9 °C 1014.8 hPa South 4.8 km/h 19.3 km/h 89% 9.1 mm
09:04 6.6 °C 4.9 °C 1014.4 hPa South 8 km/h 19.3 km/h 89% 9.1 mm
09:09 6.6 °C 4.9 °C 1014.8 hPa South 4.8 km/h 16.1 km/h 89% 9.1 mm
09:14 6.6 °C 4.9 °C 1014.8 hPa South 4.8 km/h 16.1 km/h 89% 9.4 mm
09:19 6.6 °C 4.9 °C 1014.4 hPa South 4.8 km/h 14.5 km/h 89% 9.4 mm
09:24 6.6 °C 4.9 °C 1014.4 hPa South 8 km/h 17.7 km/h 89% 9.4 mm
09:29 6.6 °C 4.9 °C 1014.4 hPa South 8 km/h 22.5 km/h 89% 9.7 mm
09:34 6.6 °C 4.9 °C 1014.4 hPa South 6.4 km/h 22.5 km/h 89% 9.7 mm
09:45 6.7 °C 5.1 °C 1014.4 hPa South 9.7 km/h 20.9 km/h 89% 9.7 mm
09:54 6.8 °C 5.3 °C 1014.4 hPa SSW 4.8 km/h 14.5 km/h 90% 9.9 mm
09:59 6.9 °C 5.2 °C 1014.4 hPa SSW 4.8 km/h 11.3 km/h 89% 9.9 mm
10:04 6.9 °C 5.2 °C 1014.4 hPa SSW 4.8 km/h 16.1 km/h 89% 9.9 mm
10:09 6.9 °C 5.3 °C 1014.4 hPa SSW 6.4 km/h 16.1 km/h 89% 9.9 mm
10:14 7 °C 5.3 °C 1014.4 hPa SW 3.2 km/h 12.9 km/h 89% 9.9 mm
10:19 7.2 °C 5.7 °C 1014.4 hPa South 4.8 km/h 11.3 km/h 90% 9.9 mm
10:24 7.3 °C 5.8 °C 1014.4 hPa South 1.6 km/h 14.5 km/h 90% 9.9 mm
10:29 7.4 °C 5.7 °C 1014.4 hPa SSW 8 km/h 16.1 km/h 89% 9.9 mm
10:34 7.4 °C 5.8 °C 1014.4 hPa South 8 km/h 16.1 km/h 89% 9.9 mm
10:39 7.4 °C 5.8 °C 1014.4 hPa South 6.4 km/h 17.7 km/h 89% 9.9 mm
10:49 7.5 °C 5.8 °C 1014.4 hPa SSW 6.4 km/h 12.9 km/h 89% 9.9 mm
10:54 7.6 °C 5.8 °C 1014.4 hPa SSW 4.8 km/h 16.1 km/h 89% 9.9 mm
10:59 7.7 °C 5.9 °C 1014.4 hPa South 3.2 km/h 16.1 km/h 89% 9.9 mm
11:04 7.8 °C 6.1 °C 1014.4 hPa SSW 1.6 km/h 16.1 km/h 89% 9.9 mm
11:09 7.8 °C 5.9 °C 1014.4 hPa South 4.8 km/h 14.5 km/h 88% 9.9 mm
11:14 7.8 °C 5.9 °C 1014.4 hPa South 8 km/h 14.5 km/h 88% 9.9 mm
11:19 7.8 °C 6.6 °C 1014.8 hPa South 4.8 km/h 17.7 km/h 92% 9.9 mm
11:24 7.8 °C 5.9 °C 1014.8 hPa SSW 8 km/h 17.7 km/h 88% 9.9 mm
11:29 7.9 °C 6.1 °C 1014.8 hPa South 8 km/h 17.7 km/h 88% 9.9 mm
11:34 7.9 °C 5.9 °C 1014.8 hPa SSW 9.7 km/h 14.5 km/h 87% 9.9 mm
11:39 8 °C 5.9 °C 1014.8 hPa South 8 km/h 14.5 km/h 87% 9.9 mm
11:44 8.1 °C 6 °C 1014.8 hPa SSW 3.2 km/h 17.7 km/h 87% 9.9 mm
11:49 8.1 °C 5.9 °C 1014.8 hPa SSW 4.8 km/h 17.7 km/h 86% 9.9 mm
11:54 8.2 °C 5.9 °C 1014.8 hPa SSW 4.8 km/h 14.5 km/h 86% 9.9 mm
11:59 8.2 °C 6.2 °C 1014.8 hPa SSW 4.8 km/h 14.5 km/h 87% 9.9 mm
12:04 8.3 °C 6.1 °C 1014.8 hPa SSW 3.2 km/h 11.3 km/h 86% 9.9 mm
12:09 8.3 °C 6.1 °C 1014.8 hPa SSW 6.4 km/h 12.9 km/h 86% 9.9 mm
12:14 8.4 °C 6.2 °C 1014.4 hPa SSW 4.8 km/h 12.9 km/h 86% 9.9 mm
12:19 8.5 °C 6.3 °C 1014.8 hPa SSW 6.4 km/h 19.3 km/h 86% 9.9 mm
12:24 8.6 °C 6.2 °C 1014.8 hPa SSW 3.2 km/h 19.3 km/h 85% 9.9 mm
12:29 8.7 °C 6.3 °C 1014.8 hPa SSW 4.8 km/h 12.9 km/h 85% 9.9 mm
12:34 8.8 °C 6.4 °C 1014.8 hPa South 3.2 km/h 12.9 km/h 85% 9.9 mm
12:44 9.1 °C 6.6 °C 1014.8 hPa SSW 4.8 km/h 17.7 km/h 84% 9.9 mm
12:49 9.1 °C 6.2 °C 1014.8 hPa SSW 6.4 km/h 17.7 km/h 82% 9.9 mm
12:54 9 °C 6.1 °C 1014.8 hPa SSW 8 km/h 16.1 km/h 82% 9.9 mm
12:59 9 °C 6.3 °C 1014.8 hPa South 3.2 km/h 12.9 km/h 83% 9.9 mm
13:04 8.9 °C 6.1 °C 1014.4 hPa SSW 6.4 km/h 17.7 km/h 82% 9.9 mm
13:09 8.9 °C 6.1 °C 1014.8 hPa SSW 4.8 km/h 17.7 km/h 82% 9.9 mm
13:14 8.9 °C 5.9 °C 1014.4 hPa SSW 6.4 km/h 17.7 km/h 81% 9.9 mm
13:19 9.1 °C 5.9 °C 1014.4 hPa SSW 6.4 km/h 16.1 km/h 81% 9.9 mm
13:24 9.2 °C 6.1 °C 1014.4 hPa SSW 8 km/h 17.7 km/h 81% 9.9 mm
13:29 9.3 °C 6.2 °C 1014.4 hPa SSW 6.4 km/h 17.7 km/h 81% 9.9 mm
13:34 9.5 °C 6.6 °C 1014.1 hPa South 6.4 km/h 16.1 km/h 82% 9.9 mm
13:39 9.7 °C 6.6 °C 1014.1 hPa South 8 km/h 20.9 km/h 81% 9.9 mm
13:44 9.8 °C 6.6 °C 1013.8 hPa SSW 8 km/h 20.9 km/h 80% 9.9 mm
13:49 10 °C 6.7 °C 1014.1 hPa South 9.7 km/h 19.3 km/h 80% 9.9 mm
13:54 10.1 °C 6.4 °C 1014.1 hPa SSW 9.7 km/h 19.3 km/h 78% 9.9 mm
13:59 10 °C 6.3 °C 1014.1 hPa SSW 11.3 km/h 22.5 km/h 78% 9.9 mm
14:04 9.9 °C 6.4 °C 1014.4 hPa SSW 6.4 km/h 22.5 km/h 79% 9.9 mm
14:09 9.8 °C 6.1 °C 1014.4 hPa SSW 11.3 km/h 20.9 km/h 78% 9.9 mm
14:14 9.7 °C 5.9 °C 1014.4 hPa SSW 11.3 km/h 19.3 km/h 77% 9.9 mm
14:19 9.7 °C 6 °C 1014.4 hPa SSW 11.3 km/h 20.9 km/h 78% 9.9 mm
14:24 9.6 °C 5.9 °C 1014.8 hPa SSW 11.3 km/h 20.9 km/h 78% 9.9 mm
14:29 9.7 °C 6 °C 1014.8 hPa SSW 6.4 km/h 17.7 km/h 78% 9.9 mm
14:39 9.7 °C 6 °C 1014.8 hPa SSW 1.6 km/h 20.9 km/h 78% 9.9 mm
14:44 9.6 °C 5.9 °C 1014.8 hPa SSW 4.8 km/h 19.3 km/h 78% 9.9 mm
14:49 9.6 °C 5.7 °C 1015.1 hPa SSW 8 km/h 17.7 km/h 77% 9.9 mm
14:54 9.5 °C 5.8 °C 1015.1 hPa SSW 4.8 km/h 14.5 km/h 78% 9.9 mm
14:59 9.4 °C 5.6 °C 1015.1 hPa SSW 6.4 km/h 12.9 km/h 77% 9.9 mm
15:04 9.4 °C 5.8 °C 1015.1 hPa SSW 8 km/h 20.9 km/h 78% 9.9 mm
15:09 9.5 °C 5.8 °C 1015.1 hPa SSW 4.8 km/h 20.9 km/h 78% 9.9 mm
15:14 9.6 °C 5.9 °C 1015.1 hPa SSW 6.4 km/h 11.3 km/h 78% 9.9 mm
15:19 9.6 °C 5.9 °C 1015.1 hPa SSW 3.2 km/h 12.9 km/h 78% 9.9 mm
15:24 9.6 °C 5.9 °C 1015.1 hPa South 6.4 km/h 12.9 km/h 78% 9.9 mm
15:29 9.6 °C 5.7 °C 1015.1 hPa SSW 6.4 km/h 14.5 km/h 77% 9.9 mm
15:34 9.6 °C 5.7 °C 1015.1 hPa SSW 4.8 km/h 14.5 km/h 77% 9.9 mm
15:39 9.5 °C 5.7 °C 1015.1 hPa SSW 6.4 km/h 11.3 km/h 77% 9.9 mm
15:44 9.4 °C 5.6 °C 1015.1 hPa South 6.4 km/h 12.9 km/h 77% 9.9 mm
15:49 9.3 °C 5.7 °C 1015.5 hPa SSW 1.6 km/h 12.9 km/h 78% 9.9 mm
15:54 9.4 °C 5.7 °C 1015.5 hPa SSW 3.2 km/h 11.3 km/h 78% 9.9 mm
15:59 9.4 °C 5.9 °C 1015.5 hPa Calm   11.3 km/h 79% 9.9 mm
16:04 9.4 °C 5.7 °C 1015.1 hPa SW 4.8 km/h 9.7 km/h 78% 9.9 mm
16:09 9.4 °C 5.9 °C 1015.5 hPa SSW 4.8 km/h 9.7 km/h 79% 9.9 mm
16:14 9.3 °C 5.9 °C 1015.1 hPa South 1.6 km/h 9.7 km/h 79% 9.9 mm
16:19 9.4 °C 5.9 °C 1015.1 hPa Calm   8 km/h 79% 9.9 mm
16:24 9.4 °C 5.9 °C 1015.1 hPa SSW 1.6 km/h 8 km/h 79% 9.9 mm
16:29 9.4 °C 6 °C 1015.1 hPa South 3.2 km/h 11.3 km/h 79% 9.9 mm
16:34 9.5 °C 6.1 °C 1015.1 hPa SSE 3.2 km/h 11.3 km/h 79% 9.9 mm
16:39 9.4 °C 6 °C 1015.1 hPa SSW 1.6 km/h 11.3 km/h 79% 9.9 mm
16:44 9.4 °C 5.9 °C 1015.1 hPa Calm   9.7 km/h 79% 9.9 mm
16:54 9.4 °C 6 °C 1015.1 hPa Calm   8 km/h 79% 9.9 mm
16:59 9.4 °C 6 °C 1015.1 hPa Calm   8 km/h 79% 9.9 mm
17:04 9.4 °C 6 °C 1015.1 hPa SSW 1.6 km/h 4.8 km/h 79% 9.9 mm
17:09 9.4 °C 6 °C 1015.1 hPa Calm   8 km/h 79% 9.9 mm
17:14 9.4 °C 5.9 °C 1015.1 hPa ESE 1.6 km/h 11.3 km/h 79% 9.9 mm
17:19 9.4 °C 5.9 °C 1015.1 hPa SSE 1.6 km/h 11.3 km/h 79% 9.9 mm
17:24 9.4 °C 5.9 °C 1015.1 hPa Calm   9.7 km/h 79% 9.9 mm
17:29 9.4 °C 6 °C 1015.1 hPa Calm   6.4 km/h 79% 9.9 mm
17:34 9.5 °C 6.1 °C 1015.1 hPa SSW 3.2 km/h 11.3 km/h 79% 9.9 mm
17:39 9.4 °C 6 °C 1015.1 hPa SSW 3.2 km/h 11.3 km/h 79% 9.9 mm
17:44 9.4 °C 5.9 °C 1015.5 hPa Calm   11.3 km/h 79% 9.9 mm
17:49 9.3 °C 5.9 °C 1015.5 hPa SSW 1.6 km/h 8 km/h 79% 9.9 mm
17:54 9.3 °C 5.9 °C 1015.5 hPa SSW 1.6 km/h 9.7 km/h 79% 9.9 mm
17:59 9.3 °C 6 °C 1015.5 hPa SSW 1.6 km/h 9.7 km/h 80% 9.9 mm
18:04 9.3 °C 6 °C 1015.5 hPa South 3.2 km/h 9.7 km/h 80% 9.9 mm
18:09 9.3 °C 6 °C 1015.5 hPa SSW 4.8 km/h 9.7 km/h 80% 9.9 mm
18:14 9.3 °C 6 °C 1015.5 hPa SSW 1.6 km/h 9.7 km/h 80% 9.9 mm
18:19 9.2 °C 5.9 °C 1015.5 hPa Calm   8 km/h 80% 9.9 mm
18:24 9.2 °C 5.9 °C 1015.5 hPa Calm   6.4 km/h 80% 9.9 mm
18:29 9.2 °C 5.9 °C 1015.5 hPa Calm   8 km/h 80% 9.9 mm
18:34 9.2 °C 5.9 °C 1015.8 hPa Calm   8 km/h 80% 9.9 mm
18:39 9.2 °C 5.9 °C 1015.8 hPa Calm   4.8 km/h 80% 9.9 mm
18:44 9.1 °C 5.8 °C 1015.8 hPa Calm   4.8 km/h 80% 9.9 mm
18:49 9.1 °C 5.8 °C 1015.8 hPa Calm   6.4 km/h 80% 9.9 mm
18:54 9 °C 5.7 °C 1015.8 hPa Calm   6.4 km/h 80% 9.9 mm
19:04 8.9 °C 5.8 °C 1016.1 hPa Calm   1.6 km/h 81% 9.9 mm
19:09 8.8 °C 5.8 °C 1016.1 hPa Calm   1.6 km/h 81% 9.9 mm
19:14 8.7 °C 5.7 °C 1016.1 hPa SSW 1.6 km/h 4.8 km/h 81% 9.9 mm
19:19 8.7 °C 5.6 °C 1016.1 hPa SSW 1.6 km/h 6.4 km/h 81% 9.9 mm
19:24 8.6 °C 5.6 °C 1016.1 hPa SSW 3.2 km/h 9.7 km/h 81% 9.9 mm
19:29 8.6 °C 5.5 °C 1016.5 hPa Calm   9.7 km/h 81% 9.9 mm
19:34 8.5 °C 5.6 °C 1016.5 hPa SSW 1.6 km/h 8 km/h 82% 9.9 mm
19:39 8.4 °C 5.6 °C 1016.5 hPa SSW 3.2 km/h 8 km/h 82% 9.9 mm
19:44 8.3 °C 5.4 °C 1016.5 hPa SSW 4.8 km/h 9.7 km/h 82% 9.9 mm
19:49 8.3 °C 5.4 °C 1016.5 hPa SSW 3.2 km/h 11.3 km/h 82% 9.9 mm
19:54 8.3 °C 5.4 °C 1016.5 hPa SSW 1.6 km/h 11.3 km/h 82% 9.9 mm
19:59 8.2 °C 5.5 °C 1016.5 hPa Calm   11.3 km/h 83% 9.9 mm
20:04 8.1 °C 5.6 °C 1016.5 hPa SW 1.6 km/h 11.3 km/h 84% 9.9 mm
20:09 8.1 °C 5.5 °C 1016.5 hPa Calm   11.3 km/h 84% 9.9 mm
20:14 8 °C 5.6 °C 1016.5 hPa SSW 1.6 km/h 11.3 km/h 85% 9.9 mm
20:19 7.9 °C 5.6 °C 1016.8 hPa Calm   11.3 km/h 85% 9.9 mm
20:24 7.9 °C 5.7 °C 1016.8 hPa South 3.2 km/h 9.7 km/h 86% 9.9 mm
20:29 7.8 °C 5.6 °C 1016.5 hPa SSW 1.6 km/h 11.3 km/h 86% 9.9 mm
20:34 7.8 °C 5.6 °C 1016.5 hPa Calm   11.3 km/h 86% 9.9 mm
20:39 7.8 °C 5.8 °C 1016.5 hPa SSE 1.6 km/h 8 km/h 87% 9.9 mm
20:44 7.8 °C 5.8 °C 1016.8 hPa South 1.6 km/h 9.7 km/h 87% 9.9 mm
20:49 7.9 °C 5.8 °C 1016.8 hPa Calm   9.7 km/h 87% 9.9 mm
20:54 7.9 °C 5.8 °C 1016.8 hPa Calm   1.6 km/h 87% 9.9 mm
20:59 7.9 °C 5.8 °C 1016.8 hPa Calm   1.6 km/h 87% 9.9 mm
21:04 7.9 °C 5.8 °C 1016.8 hPa South 3.2 km/h 9.7 km/h 87% 9.9 mm
21:09 7.9 °C 5.8 °C 1016.8 hPa Calm   9.7 km/h 87% 9.9 mm
21:14 7.9 °C 5.9 °C 1016.8 hPa Calm   8 km/h 87% 9.9 mm
21:19 7.9 °C 5.9 °C 1016.8 hPa Calm   3.2 km/h 87% 9.9 mm
21:24 8 °C 5.9 °C 1016.8 hPa Calm     87% 9.9 mm
21:29 8 °C 5.9 °C 1017.2 hPa Calm     87% 9.9 mm
21:34 8 °C 5.9 °C 1017.2 hPa Calm     87% 9.9 mm
21:39 8 °C 5.9 °C 1017.2 hPa Calm   4.8 km/h 87% 9.9 mm
21:44 8 °C 5.9 °C 1016.8 hPa Calm   4.8 km/h 87% 9.9 mm
21:49 7.9 °C 5.9 °C 1016.8 hPa Calm   4.8 km/h 87% 9.9 mm
21:54 7.9 °C 5.9 °C 1016.8 hPa Calm     87% 9.9 mm
21:59 8 °C 5.9 °C 1016.8 hPa Calm     87% 9.9 mm
22:04 8 °C 5.9 °C 1016.8 hPa Calm     87% 9.9 mm
22:09 8 °C 5.9 °C 1016.8 hPa Calm     87% 9.9 mm
22:14 8 °C 6.1 °C 1016.8 hPa Calm   3.2 km/h 88% 9.9 mm
22:19 7.9 °C 6 °C 1016.8 hPa Calm   3.2 km/h 88% 9.9 mm
22:24 7.8 °C 5.9 °C 1016.8 hPa Calm     88% 9.9 mm
22:29 7.7 °C 5.8 °C 1016.8 hPa Calm     88% 9.9 mm
22:34 7.7 °C 5.7 °C 1016.8 hPa Calm     87% 9.9 mm
22:44 7.6 °C 5.8 °C 1017.2 hPa Calm     88% 9.9 mm
22:49 7.6 °C 5.7 °C 1017.2 hPa Calm     88% 9.9 mm
22:54 7.6 °C 5.7 °C 1017.2 hPa Calm     88% 9.9 mm
22:59 7.6 °C 5.7 °C 1017.2 hPa Calm     88% 9.9 mm
23:04 7.6 °C 5.7 °C 1017.2 hPa Calm     88% 9.9 mm
23:09 7.6 °C 5.7 °C 1017.2 hPa Calm     88% 9.9 mm
23:14 7.6 °C 5.8 °C 1017.2 hPa Calm     88% 9.9 mm
23:19 7.6 °C 5.8 °C 1017.2 hPa Calm     88% 9.9 mm
23:24 7.6 °C 5.9 °C 1017.2 hPa Calm     89% 9.9 mm
23:29 7.6 °C 5.9 °C 1017.2 hPa Calm     89% 9.9 mm
23:34 7.6 °C 5.9 °C 1017.2 hPa Calm     89% 9.9 mm
23:39 7.6 °C 5.8 °C 1017.2 hPa Calm     89% 9.9 mm
23:44 7.6 °C 5.8 °C 1017.2 hPa Calm     89% 9.9 mm
23:49 7.6 °C 5.8 °C 1017.2 hPa Calm     89% 9.9 mm
23:54 7.6 °C 5.9 °C 1017.5 hPa Calm     89% 9.9 mm
23:59 7.6 °C 5.9 °C 1017.5 hPa Calm     89% 9.9 mm
Westford Weather
Compliments of Weather Underground

 
 
Current Radar Loop:

Copyright © WestfordWeather.net 2007-2014. All rights reserved.